Time;durP1;ratioP1;P1;durP2;ratioP2;P2;SDS_P1;SDS_P2;PMS_P1;PMS_P2;Temp;Humidity;BMP_temperature;BMP_pressure;BME280_temperature;BME280_humidity;BME280_pressure;Samples;Min_cycle;Max_cycle;Signal;HPM_P1;HPM_P2
2021/08/26 00:00:24;;;;;;;;;;;;;;;22.82;28.94;97562.91;4939348;29;1173;-81
2021/08/26 00:05:50;;;;;;;;;;;;;;;22.57;29.26;97558.16;4957123;29;854;-81
2021/08/26 00:08:16;;;;;;;;;;;;;;;22.61;29.55;97553.16;4956647;29;1902;-81
2021/08/26 00:10:42;;;;;;;;;;;;;;;22.70;29.54;97541.09;4955592;28;863;-81
2021/08/26 00:13:08;;;;;;;;;;;;;;;22.74;29.37;97539.69;4954631;29;636;-81
2021/08/26 00:15:34;;;;;;;;;;;;;;;22.67;29.58;97545.63;4969329;28;1266;-81
2021/08/26 00:17:59;;;;;;;;;;;;;;;22.72;29.72;97542.19;4970269;28;894;-81
2021/08/26 00:20:26;;;;;;;;;;;;;;;22.68;29.60;97535.88;4970402;29;939;-80
2021/08/26 00:22:51;;;;;;;;;;;;;;;22.73;29.59;97542.97;4970374;28;967;-80
2021/08/26 00:25:17;;;;;;;;;;;;;;;22.74;29.57;97541.72;4967783;28;782;-81
2021/08/26 00:27:43;;;;;;;;;;;;;;;22.82;29.59;97526.81;4968195;28;1982;-81
2021/08/26 00:30:08;;;;;;;;;;;;;;;22.84;29.71;97515.78;4967156;29;799;-82
2021/08/26 00:32:34;;;;;;;;;;;;;;;22.96;29.57;97521.88;4951586;29;961;-81
2021/08/26 00:34:59;;;;;;;;;;;;;;;22.84;29.47;97527.13;4966338;29;965;-81
2021/08/26 00:37:25;;;;;;;;;;;;;;;22.71;29.86;97529.28;4966965;29;887;-81
2021/08/26 00:39:50;;;;;;;;;;;;;;;22.64;30.15;97538.06;4967653;29;704;-81
2021/08/26 00:42:15;;;;;;;;;;;;;;;22.82;29.74;97534.53;4983674;28;695;-81
2021/08/26 00:44:41;;;;;;;;;;;;;;;22.76;29.96;97525.84;4966607;29;667;-81
2021/08/26 00:47:07;;;;;;;;;;;;;;;22.71;29.79;97534.94;4967134;29;1052;-81
2021/08/26 00:49:33;;;;;;;;;;;;;;;22.55;29.98;97535.16;4966383;29;1891;-81
2021/08/26 00:51:58;;;;;;;;;;;;;;;22.56;29.89;97542.41;4967510;29;915;-80
2021/08/26 00:54:24;;;;;;;;;;;;;;;22.73;29.97;97532.44;4967240;29;858;-82
2021/08/26 00:56:49;;;;;;;;;;;;;;;22.80;29.80;97532.16;4967254;29;640;-81
2021/08/26 00:59:16;;;;;;;;;;;;;;;22.75;29.59;97529.94;4966822;29;694;-81
2021/08/26 01:01:43;;;;;;;;;;;;;;;22.78;29.61;97517.66;4966895;29;879;-81
2021/08/26 01:04:08;;;;;;;;;;;;;;;22.74;29.60;97519.84;4966470;29;898;-81
2021/08/26 01:06:34;;;;;;;;;;;;;;;22.65;29.68;97511.28;4967028;29;936;-81
2021/08/26 01:09:00;;;;;;;;;;;;;;;22.70;29.78;97505.00;4949485;29;1977;-81
2021/08/26 01:11:26;;;;;;;;;;;;;;;22.66;29.49;97510.03;4966774;29;648;-81
2021/08/26 01:13:52;;;;;;;;;;;;;;;22.70;29.32;97519.19;4966073;28;984;-80
2021/08/26 01:16:17;;;;;;;;;;;;;;;22.68;29.60;97518.84;4967151;29;903;-81
2021/08/26 01:18:43;;;;;;;;;;;;;;;22.67;29.34;97517.28;4965907;28;999;-81
2021/08/26 01:21:13;;;;;;;;;;;;;;;22.86;29.38;97501.94;4967025;29;843;-81
2021/08/26 01:23:43;;;;;;;;;;;;;;;22.75;29.35;97501.56;4965997;29;702;-81
2021/08/26 01:26:09;;;;;;;;;;;;;;;22.60;29.60;97511.88;4967007;29;690;-81
2021/08/26 01:28:35;;;;;;;;;;;;;;;22.59;29.42;97510.31;4966258;29;1907;-82
2021/08/26 01:31:02;;;;;;;;;;;;;;;22.59;29.76;97516.78;4966822;29;903;-81
2021/08/26 01:33:28;;;;;;;;;;;;;;;22.68;29.12;97513.19;4966203;28;938;-81
2021/08/26 01:35:53;;;;;;;;;;;;;;;22.82;28.94;97501.28;4966891;28;983;-80
2021/08/26 01:38:22;;;;;;;;;;;;;;;22.87;28.47;97503.50;4966087;29;834;-81
2021/08/26 01:40:48;;;;;;;;;;;;;;;22.83;28.43;97504.91;4951105;29;612;-81
2021/08/26 01:43:13;;;;;;;;;;;;;;;22.81;28.53;97493.25;4965879;29;798;-81
2021/08/26 01:45:39;;;;;;;;;;;;;;;22.82;28.26;97500.50;4966115;29;1002;-81
2021/08/26 01:48:05;;;;;;;;;;;;;;;22.59;28.63;97498.97;4949275;29;1967;-81
2021/08/26 01:50:30;;;;;;;;;;;;;;;22.59;28.64;97493.28;4950645;29;878;-82
2021/08/26 01:52:56;;;;;;;;;;;;;;;22.51;28.64;97491.97;4966439;29;631;-82
2021/08/26 01:55:22;;;;;;;;;;;;;;;22.63;28.56;97479.75;4934909;29;1306;-81
2021/08/26 01:57:48;;;;;;;;;;;;;;;22.64;28.80;97481.34;4966287;28;719;-81
2021/08/26 02:00:13;;;;;;;;;;;;;;;22.69;28.87;97468.59;4982254;28;904;-81
2021/08/26 02:02:39;;;;;;;;;;;;;;;22.82;28.47;97467.25;4966189;29;904;-81
2021/08/26 02:05:04;;;;;;;;;;;;;;;22.73;28.53;97475.69;4965823;29;967;-81
2021/08/26 02:07:30;;;;;;;;;;;;;;;22.75;28.83;97484.56;4966796;28;1974;-81
2021/08/26 02:09:55;;;;;;;;;;;;;;;22.67;28.94;97476.78;4965540;29;1372;-80
2021/08/26 02:12:21;;;;;;;;;;;;;;;22.84;28.71;97470.38;4965950;29;911;-82
2021/08/26 02:14:46;;;;;;;;;;;;;;;22.71;28.86;97472.56;4965063;29;1106;-82
2021/08/26 02:17:11;;;;;;;;;;;;;;;22.65;28.80;97470.81;4966235;29;964;-82
2021/08/26 02:19:37;;;;;;;;;;;;;;;22.67;29.09;97466.22;4965557;29;988;-81
2021/08/26 02:22:02;;;;;;;;;;;;;;;22.86;28.75;97464.28;4966704;29;770;-81
2021/08/26 02:24:28;;;;;;;;;;;;;;;22.77;28.89;97465.00;4949976;29;1454;-82
2021/08/26 02:26:53;;;;;;;;;;;;;;;22.75;28.75;97461.06;4966811;28;734;-81
2021/08/26 02:29:19;;;;;;;;;;;;;;;22.76;28.63;97460.59;4965158;29;1910;-81
2021/08/26 02:32:00;;;;;;;;;;;;;;;22.74;28.75;97463.13;4965824;29;848;-81
2021/08/26 02:34:25;;;;;;;;;;;;;;;22.77;28.65;97458.56;4964894;29;878;-81
2021/08/26 02:36:50;;;;;;;;;;;;;;;22.78;28.90;97455.25;4933217;29;1179;-81
2021/08/26 02:39:16;;;;;;;;;;;;;;;22.81;28.68;97465.66;4965533;29;1434;-81
2021/08/26 02:41:41;;;;;;;;;;;;;;;22.67;28.83;97462.59;4964729;29;835;-80
2021/08/26 02:44:07;;;;;;;;;;;;;;;22.63;28.76;97462.72;4964425;29;960;-81
2021/08/26 02:46:32;;;;;;;;;;;;;;;22.67;28.61;97471.91;4965832;28;971;-81
2021/08/26 02:49:04;;;;;;;;;;;;;;;22.66;28.69;97466.69;4964206;28;1898;-81
2021/08/26 02:51:29;;;;;;;;;;;;;;;22.72;28.51;97465.63;4966003;28;726;-81
2021/08/26 02:53:55;;;;;;;;;;;;;;;22.62;28.77;97461.16;4980769;28;704;-81
2021/08/26 02:56:20;;;;;;;;;;;;;;;22.70;28.70;97470.97;4966479;28;656;-81
2021/08/26 02:58:45;;;;;;;;;;;;;;;22.68;28.67;97464.97;4966081;28;674;-81
2021/08/26 03:01:11;;;;;;;;;;;;;;;22.70;28.43;97465.31;4966057;28;937;-81
2021/08/26 03:03:36;;;;;;;;;;;;;;;22.77;28.19;97464.22;4964570;29;1169;-81
2021/08/26 03:06:02;;;;;;;;;;;;;;;22.80;28.34;97469.75;4965871;28;830;-81
2021/08/26 03:08:29;;;;;;;;;;;;;;;22.48;28.61;97471.00;4965574;28;1915;-81
2021/08/26 03:10:55;;;;;;;;;;;;;;;22.57;28.83;97470.28;4965921;28;1079;-81
2021/08/26 03:13:20;;;;;;;;;;;;;;;22.63;28.83;97462.72;4964568;29;1083;-81
2021/08/26 03:15:46;;;;;;;;;;;;;;;22.58;28.75;97466.19;4949499;29;1113;-81
2021/08/26 03:18:12;;;;;;;;;;;;;;;22.62;28.66;97464.00;4948142;29;954;-81
2021/08/26 03:20:39;;;;;;;;;;;;;;;22.68;28.77;97473.47;4949407;29;899;-81
2021/08/26 03:23:04;;;;;;;;;;;;;;;22.66;29.05;97470.31;4948733;29;738;-81
2021/08/26 03:25:30;;;;;;;;;;;;;;;22.63;28.84;97471.25;4949060;29;656;-81
2021/08/26 03:27:55;;;;;;;;;;;;;;;22.56;29.00;97466.66;4965167;29;1915;-81
2021/08/26 03:30:20;;;;;;;;;;;;;;;22.57;29.13;97473.09;4948716;29;899;-81
2021/08/26 03:32:46;;;;;;;;;;;;;;;22.74;28.97;97467.97;4965422;29;953;-81
2021/08/26 03:35:11;;;;;;;;;;;;;;;22.93;28.63;97460.38;4932635;29;867;-81
2021/08/26 03:37:37;;;;;;;;;;;;;;;22.82;28.68;97467.25;4949099;29;680;-81
2021/08/26 03:40:02;;;;;;;;;;;;;;;22.74;28.92;97465.16;4932485;29;1344;-81
2021/08/26 03:42:28;;;;;;;;;;;;;;;22.73;28.92;97458.69;4965493;29;732;-81
2021/08/26 03:44:53;;;;;;;;;;;;;;;22.69;29.18;97463.72;4947504;29;900;-81
2021/08/26 03:47:19;;;;;;;;;;;;;;;22.71;29.19;97466.88;4948371;29;1895;-82
2021/08/26 03:49:44;;;;;;;;;;;;;;;22.72;29.24;97457.13;4964930;29;833;-81
2021/08/26 03:52:09;;;;;;;;;;;;;;;22.84;29.20;97456.22;4949312;29;801;-81
2021/08/26 03:54:35;;;;;;;;;;;;;;;22.74;29.37;97460.28;4932494;29;652;-81
2021/08/26 03:57:01;;;;;;;;;;;;;;;22.52;29.99;97470.88;4948440;29;927;-81
2021/08/26 03:59:26;;;;;;;;;;;;;;;22.64;29.70;97455.84;4964644;28;1203;-81
2021/08/26 04:01:52;;;;;;;;;;;;;;;22.85;29.40;97457.81;4952027;29;882;-81
2021/08/26 04:04:17;;;;;;;;;;;;;;;22.83;29.47;97468.81;4951900;29;831;-81
2021/08/26 04:06:43;;;;;;;;;;;;;;;22.78;29.72;97477.16;4936496;29;1205;-82
2021/08/26 04:09:08;;;;;;;;;;;;;;;22.75;29.64;97478.09;4951737;29;1907;-81
2021/08/26 04:11:33;;;;;;;;;;;;;;;22.74;29.79;97485.00;4969203;29;630;-81
2021/08/26 04:13:59;;;;;;;;;;;;;;;22.72;29.83;97491.16;4953798;29;1024;-81
2021/08/26 04:16:24;;;;;;;;;;;;;;;22.83;29.72;97488.66;4952361;29;897;-81
2021/08/26 04:18:50;;;;;;;;;;;;;;;22.74;30.03;97500.00;4967760;29;911;-82
2021/08/26 04:21:15;;;;;;;;;;;;;;;22.71;29.86;97495.25;4968350;29;663;-81
2021/08/26 04:23:40;;;;;;;;;;;;;;;22.68;30.04;97499.00;4967629;29;639;-81
2021/08/26 04:26:06;;;;;;;;;;;;;;;22.65;30.06;97502.78;4968170;29;859;-81
2021/08/26 04:28:31;;;;;;;;;;;;;;;22.81;29.83;97488.34;4966839;28;1899;-81
2021/08/26 04:30:57;;;;;;;;;;;;;;;22.72;30.49;97499.66;4967613;29;863;-81
2021/08/26 04:33:22;;;;;;;;;;;;;;;22.68;30.11;97501.84;4964403;29;891;-81
2021/08/26 04:35:47;;;;;;;;;;;;;;;22.64;30.50;97489.84;4952129;29;719;-81
2021/08/26 04:38:13;;;;;;;;;;;;;;;22.74;30.12;97499.19;4967275;29;743;-81
2021/08/26 04:40:39;;;;;;;;;;;;;;;22.86;29.85;97498.31;4967562;29;776;-81
2021/08/26 04:43:05;;;;;;;;;;;;;;;22.75;30.12;97495.91;4951512;29;955;-81
2021/08/26 04:45:30;;;;;;;;;;;;;;;22.75;30.42;97495.13;4967269;29;944;-81
2021/08/26 04:47:55;;;;;;;;;;;;;;;22.83;30.13;97500.03;4967039;29;1969;-81
2021/08/26 04:50:21;;;;;;;;;;;;;;;22.86;29.98;97504.78;4967563;29;601;-81
2021/08/26 04:52:46;;;;;;;;;;;;;;;22.76;30.13;97491.81;4951803;29;1313;-81
2021/08/26 04:55:12;;;;;;;;;;;;;;;22.88;29.87;97493.78;4966985;29;687;-82
2021/08/26 04:57:37;;;;;;;;;;;;;;;22.62;30.46;97509.38;4966745;29;1068;-81
2021/08/26 05:00:03;;;;;;;;;;;;;;;22.94;29.85;97507.34;4967431;28;959;-81
2021/08/26 05:02:29;;;;;;;;;;;;;;;22.87;29.73;97503.50;4968203;29;1119;-81
2021/08/26 05:04:55;;;;;;;;;;;;;;;22.76;30.12;97502.34;4967050;29;616;-81
2021/08/26 05:07:21;;;;;;;;;;;;;;;22.70;30.21;97515.56;4968262;28;1902;-81
2021/08/26 05:09:47;;;;;;;;;;;;;;;22.71;29.99;97500.91;4950731;29;1208;-81
2021/08/26 05:12:12;;;;;;;;;;;;;;;22.68;30.00;97509.56;4966625;28;860;-81
2021/08/26 05:14:38;;;;;;;;;;;;;;;22.72;30.24;97505.31;4965929;29;1213;-82
2021/08/26 05:17:03;;;;;;;;;;;;;;;22.72;29.92;97508.16;4967046;29;934;-81
2021/08/26 05:19:29;;;;;;;;;;;;;;;22.71;30.32;97506.59;4951537;29;771;-82
2021/08/26 05:21:54;;;;;;;;;;;;;;;22.66;30.29;97521.38;4967073;29;687;-81
2021/08/26 05:24:20;;;;;;;;;;;;;;;22.74;29.89;97522.69;4966470;29;854;-82
2021/08/26 05:26:45;;;;;;;;;;;;;;;22.73;30.19;97529.59;4966791;29;879;-82
2021/08/26 05:29:11;;;;;;;;;;;;;;;22.73;29.91;97526.75;4967241;28;1903;-82
2021/08/26 05:31:36;;;;;;;;;;;;;;;22.60;29.82;97534.56;4968002;28;934;-81
2021/08/26 05:34:02;;;;;;;;;;;;;;;22.84;29.68;97527.13;4966914;29;826;-82
2021/08/26 05:36:27;;;;;;;;;;;;;;;22.87;29.40;97531.88;4967691;29;850;-82
2021/08/26 05:38:52;;;;;;;;;;;;;;;22.92;29.60;97532.56;4966473;29;730;-82
2021/08/26 05:41:18;;;;;;;;;;;;;;;22.94;29.33;97538.56;4951044;29;998;-82
2021/08/26 05:43:43;;;;;;;;;;;;;;;22.76;29.68;97544.91;4950374;29;1289;-82
2021/08/26 05:46:09;;;;;;;;;;;;;;;22.73;30.09;97549.44;4966890;29;847;-81
2021/08/26 05:48:34;;;;;;;;;;;;;;;22.72;29.80;97553.53;4950079;29;1959;-82
2021/08/26 05:51:00;;;;;;;;;;;;;;;22.77;29.71;97555.00;4950740;29;808;-81
2021/08/26 05:53:25;;;;;;;;;;;;;;;22.77;29.76;97544.44;4965673;29;894;-81
2021/08/26 05:55:51;;;;;;;;;;;;;;;22.96;29.61;97555.91;4967718;29;857;-81
2021/08/26 05:58:16;;;;;;;;;;;;;;;22.74;29.51;97542.53;4966685;29;846;-82
2021/08/26 06:00:42;;;;;;;;;;;;;;;22.95;29.17;97554.31;4967039;29;923;-81
2021/08/26 06:03:07;;;;;;;;;;;;;;;22.85;29.46;97542.91;4965574;29;815;-81
2021/08/26 06:05:33;;;;;;;;;;;;;;;22.88;28.92;97556.19;4967225;28;753;-82
2021/08/26 06:07:58;;;;;;;;;;;;;;;22.77;29.09;97558.63;4967153;29;1871;-82
2021/08/26 06:10:23;;;;;;;;;;;;;;;22.88;29.17;97555.38;4965565;29;917;-81
2021/08/26 06:12:49;;;;;;;;;;;;;;;22.90;28.91;97563.44;4966330;29;893;-81
2021/08/26 06:15:14;;;;;;;;;;;;;;;22.76;29.09;97548.53;4981901;28;1279;-80
2021/08/26 06:17:40;;;;;;;;;;;;;;;22.90;28.99;97552.09;4950173;29;863;-80
2021/08/26 06:20:06;;;;;;;;;;;;;;;22.91;28.77;97548.81;4965136;29;892;-81
2021/08/26 06:22:32;;;;;;;;;;;;;;;22.86;28.73;97547.31;4964947;28;887;-82
2021/08/26 06:24:57;;;;;;;;;;;;;;;22.74;29.12;97545.38;4981494;28;920;-82
2021/08/26 06:27:23;;;;;;;;;;;;;;;22.81;28.89;97541.47;4981966;28;1908;-81
2021/08/26 06:29:48;;;;;;;;;;;;;;;22.87;28.96;97540.38;4965267;29;1039;-82
2021/08/26 06:32:14;;;;;;;;;;;;;;;22.77;29.16;97533.09;4966522;28;663;-81
2021/08/26 06:34:39;;;;;;;;;;;;;;;22.68;29.01;97535.88;4966126;28;687;-81
2021/08/26 06:37:04;;;;;;;;;;;;;;;22.78;29.05;97542.38;4965766;29;801;-81
2021/08/26 06:39:30;;;;;;;;;;;;;;;22.85;28.61;97540.06;4965945;29;989;-82
2021/08/26 06:41:56;;;;;;;;;;;;;;;22.77;28.97;97535.91;4965631;28;929;-82
2021/08/26 06:44:22;;;;;;;;;;;;;;;22.80;29.09;97546.34;4965252;28;1048;-81
2021/08/26 06:46:47;;;;;;;;;;;;;;;22.74;29.30;97539.69;4965390;29;757;-81
2021/08/26 06:49:12;;;;;;;;;;;;;;;22.80;28.95;97554.06;4965157;28;1964;-81
2021/08/26 06:51:38;;;;;;;;;;;;;;;22.78;29.22;97534.66;4965524;28;778;-81
2021/08/26 06:54:03;;;;;;;;;;;;;;;23.04;28.47;97535.28;4948809;29;980;-82
2021/08/26 06:56:29;;;;;;;;;;;;;;;22.84;29.13;97538.47;4964953;29;862;-82
2021/08/26 06:58:54;;;;;;;;;;;;;;;22.83;29.02;97541.78;4965998;28;822;-82
2021/08/26 07:01:19;;;;;;;;;;;;;;;22.66;29.14;97549.72;4965245;29;786;-81
2021/08/26 07:03:45;;;;;;;;;;;;;;;22.80;29.06;97542.72;4965120;29;671;-81
2021/08/26 07:06:10;;;;;;;;;;;;;;;22.88;29.20;97536.31;4965848;29;679;-81
2021/08/26 07:08:36;;;;;;;;;;;;;;;22.86;28.94;97535.19;4947406;29;1971;-82
2021/08/26 07:11:01;;;;;;;;;;;;;;;22.75;29.17;97534.81;4965783;29;901;-81
2021/08/26 07:13:27;;;;;;;;;;;;;;;22.63;29.39;97536.47;4964411;29;962;-81
2021/08/26 07:15:52;;;;;;;;;;;;;;;22.76;29.08;97542.84;4949589;29;644;-82
2021/08/26 07:18:19;;;;;;;;;;;;;;;22.83;29.14;97536.91;4949085;29;629;-81
2021/08/26 07:20:44;;;;;;;;;;;;;;;22.90;28.90;97552.91;4933476;29;959;-81
2021/08/26 07:23:10;;;;;;;;;;;;;;;22.83;29.08;97547.44;4948516;29;1005;-82
2021/08/26 07:25:35;;;;;;;;;;;;;;;22.83;29.19;97551.06;4933589;29;904;-82
2021/08/26 07:28:03;;;;;;;;;;;;;;;22.75;28.92;97534.81;4965772;29;1899;-82
2021/08/26 07:30:28;;;;;;;;;;;;;;;22.92;28.64;97549.59;4934264;29;640;-82
2021/08/26 07:32:54;;;;;;;;;;;;;;;22.80;28.97;97542.72;4949569;29;1292;-82
2021/08/26 07:35:19;;;;;;;;;;;;;;;22.86;28.92;97547.31;4952181;29;723;-81
2021/08/26 07:37:45;;;;;;;;;;;;;;;22.81;28.97;97542.25;4952380;29;850;-81
2021/08/26 07:40:11;;;;;;;;;;;;;;;22.86;29.00;97544.50;4969490;29;918;-82
2021/08/26 07:42:37;;;;;;;;;;;;;;;22.74;29.10;97544.56;4953133;29;939;-82
2021/08/26 07:45:03;;;;;;;;;;;;;;;22.64;29.28;97546.56;4952218;29;988;-82
2021/08/26 07:47:29;;;;;;;;;;;;;;;22.67;28.98;97545.63;4953072;29;1955;-82
2021/08/26 07:49:54;;;;;;;;;;;;;;;22.83;29.11;97548.25;4952089;29;928;-82
2021/08/26 07:52:23;;;;;;;;;;;;;;;22.83;29.03;97531.22;4952321;29;893;-82
2021/08/26 07:54:48;;;;;;;;;;;;;;;22.76;29.02;97542.84;4968540;29;912;-82
2021/08/26 07:57:16;;;;;;;;;;;;;;;22.81;29.25;97536.56;4969896;29;896;-81
2021/08/26 07:59:41;;;;;;;;;;;;;;;22.77;29.04;97537.97;4969754;29;687;-81
2021/08/26 08:02:08;;;;;;;;;;;;;;;22.79;28.94;97527.72;4952763;29;771;-81
2021/08/26 08:04:34;;;;;;;;;;;;;;;22.78;28.92;97536.72;4969466;29;663;-81
2021/08/26 08:07:00;;;;;;;;;;;;;;;22.80;28.84;97543.50;4952701;29;985;-81
2021/08/26 08:09:25;;;;;;;;;;;;;;;22.79;28.98;97539.06;4951912;29;1984;-81
2021/08/26 08:11:50;;;;;;;;;;;;;;;22.73;29.12;97543.78;4937026;29;1180;-82
2021/08/26 08:14:16;;;;;;;;;;;;;;;22.81;28.71;97542.25;4956566;29;1145;-82
2021/08/26 08:16:41;;;;;;;;;;;;;;;22.93;28.71;97556.84;4969211;29;636;-82
2021/08/26 08:19:07;;;;;;;;;;;;;;;22.93;28.92;97531.31;4952652;29;644;-82
2021/08/26 08:21:32;;;;;;;;;;;;;;;22.86;28.78;97541.66;4968860;28;1021;-81
2021/08/26 08:23:59;;;;;;;;;;;;;;;22.92;28.62;97524.06;4967729;29;872;-82
2021/08/26 08:26:25;;;;;;;;;;;;;;;22.95;28.59;97514.59;4968437;29;839;-82
2021/08/26 08:28:50;;;;;;;;;;;;;;;22.76;28.77;97528.66;4968061;28;1985;-82
2021/08/26 08:31:16;;;;;;;;;;;;;;;22.87;28.63;97514.84;4968099;29;789;-81
2021/08/26 08:33:44;;;;;;;;;;;;;;;22.99;28.41;97521.72;4952070;29;826;-81
2021/08/26 08:36:09;;;;;;;;;;;;;;;22.84;28.92;97529.97;4952648;29;984;-81
2021/08/26 08:38:35;;;;;;;;;;;;;;;23.07;28.27;97528.69;4950549;29;886;-82
2021/08/26 08:41:01;;;;;;;;;;;;;;;22.90;28.88;97529.38;4968769;29;1006;-82
2021/08/26 08:43:26;;;;;;;;;;;;;;;22.82;28.89;97521.13;4967793;28;734;-81
2021/08/26 08:45:52;;;;;;;;;;;;;;;22.76;29.10;97525.84;4967134;28;811;-82
2021/08/26 08:48:18;;;;;;;;;;;;;;;22.84;28.68;97504.44;4967047;29;1899;-82
2021/08/26 08:50:44;;;;;;;;;;;;;;;22.74;29.15;97522.69;4968999;28;845;-82
2021/08/26 08:53:10;;;;;;;;;;;;;;;22.83;28.70;97513.41;4967188;28;832;-82
2021/08/26 08:55:36;;;;;;;;;;;;;;;22.68;28.98;97513.19;4967857;29;1033;-81
2021/08/26 08:58:03;;;;;;;;;;;;;;;22.89;28.85;97511.56;4967445;29;862;-81
2021/08/26 09:00:29;;;;;;;;;;;;;;;22.83;28.90;97513.41;4968376;28;642;-81
2021/08/26 09:02:54;;;;;;;;;;;;;;;22.90;28.64;97512.38;4967258;29;655;-81
2021/08/26 09:05:22;;;;;;;;;;;;;;;23.07;28.61;97516.56;4967456;29;917;-81
2021/08/26 09:07:47;;;;;;;;;;;;;;;22.85;28.87;97523.06;4967506;28;1969;-81
2021/08/26 09:10:13;;;;;;;;;;;;;;;22.99;28.43;97524.56;4967925;29;934;-80
2021/08/26 09:12:38;;;;;;;;;;;;;;;22.88;28.88;97527.81;4951909;29;1258;-81
2021/08/26 09:15:08;;;;;;;;;;;;;;;22.87;28.93;97514.84;4967729;29;980;-81
2021/08/26 09:17:33;;;;;;;;;;;;;;;22.68;28.94;97516.00;4950975;29;887;-81
2021/08/26 09:20:02;;;;;;;;;;;;;;;22.73;28.79;97512.56;4919237;29;1290;-81
2021/08/26 09:22:28;;;;;;;;;;;;;;;22.76;29.19;97514.50;4950118;29;926;-81
2021/08/26 09:24:53;;;;;;;;;;;;;;;22.86;28.81;97518.97;4950325;29;855;-81
2021/08/26 09:27:31;;;;;;;;;;;;;;;22.91;28.96;97508.28;4951251;29;740;-81
2021/08/26 09:30:00;;;;;;;;;;;;;;;22.91;29.02;97511.91;4950825;29;671;-81
2021/08/26 09:32:44;;;;;;;;;;;;;;;22.91;28.79;97508.28;4967664;29;632;-81
2021/08/26 09:35:13;;;;;;;;;;;;;;;23.05;28.50;97507.69;4966971;29;851;-82
2021/08/26 09:38:04;;;;;;;;;;;;;;;22.89;28.72;97505.91;4967642;29;887;-82
2021/08/26 09:40:40;;;;;;;;;;;;;;;22.91;28.86;97508.28;4964762;29;913;-81
2021/08/26 09:43:06;;;;;;;;;;;;;;;22.84;28.99;97495.91;4950593;29;649;-81
2021/08/26 09:45:36;;;;;;;;;;;;;;;23.00;29.40;97494.13;4949075;29;679;-77
2021/08/26 09:48:06;;;;;;;;;;;;;;;22.97;29.11;97500.75;4962866;29;1902;-76
2021/08/26 09:50:38;;;;;;;;;;;;;;;23.29;29.13;97497.38;4962661;29;953;-78
2021/08/26 09:53:04;;;;;;;;;;;;;;;23.16;29.18;97498.75;4946359;29;943;-78
2021/08/26 09:55:49;;;;;;;;;;;;;;;23.11;31.88;97489.63;4962849;29;829;-72
2021/08/26 09:58:15;;;;;;;;;;;;;;;23.35;32.20;97487.00;4953816;28;1094;-79
2021/08/26 10:00:40;;;;;;;;;;;;;;;23.13;31.88;97504.13;4947959;29;639;-79
2021/08/26 10:03:14;;;;;;;;;;;;;;;22.96;31.92;97499.19;4947491;29;715;-79
2021/08/26 10:05:42;;;;;;;;;;;;;;;23.02;31.24;97491.63;4931776;29;1000;-79
2021/08/26 10:08:07;;;;;;;;;;;;;;;23.04;30.98;97494.78;4947554;29;2013;-80
2021/08/26 10:10:33;;;;;;;;;;;;;;;22.93;31.02;97488.75;4932170;29;911;-79
2021/08/26 10:13:01;;;;;;;;;;;;;;;23.00;30.46;97502.63;4946953;29;1528;-80
2021/08/26 10:15:27;;;;;;;;;;;;;;;22.95;30.76;97491.91;4926483;29;994;-79
2021/08/26 10:17:53;;;;;;;;;;;;;;;22.93;30.32;97483.06;4925572;29;668;-79
2021/08/26 10:20:19;;;;;;;;;;;;;;;22.94;30.10;97484.66;4925252;29;1009;-79
2021/08/26 10:22:45;;;;;;;;;;;;;;;22.94;30.10;97479.75;4925019;29;950;-79
2021/08/26 10:25:10;;;;;;;;;;;;;;;22.81;30.50;97482.69;4924865;29;898;-78
2021/08/26 10:27:35;;;;;;;;;;;;;;;22.92;30.05;97475.81;4925722;29;1914;-78
2021/08/26 10:30:01;;;;;;;;;;;;;;;22.86;29.94;97484.91;4924952;29;703;-79
2021/08/26 10:32:26;;;;;;;;;;;;;;;22.81;29.96;97476.22;4926273;29;697;-79
2021/08/26 10:35:11;;;;;;;;;;;;;;;22.96;29.89;97470.81;4925414;29;984;-79
2021/08/26 10:37:43;;;;;;;;;;;;;;;22.93;29.85;97478.19;4925123;29;972;-79
2021/08/26 10:40:32;;;;;;;;;;;;;;;22.83;29.66;97480.16;4925855;29;708;-79
2021/08/26 10:42:57;;;;;;;;;;;;;;;22.94;29.84;97467.63;4899328;29;1241;-79
2021/08/26 10:45:28;;;;;;;;;;;;;;;22.94;29.52;97467.63;4925890;29;675;-79
2021/08/26 10:47:55;;;;;;;;;;;;;;;22.96;29.54;97465.91;4924827;29;1985;-79
2021/08/26 10:50:24;;;;;;;;;;;;;;;22.93;29.64;97468.88;4925721;29;876;-79
2021/08/26 10:52:53;;;;;;;;;;;;;;;22.84;29.67;97464.72;4908796;29;918;-79
2021/08/26 10:55:28;;;;;;;;;;;;;;;22.62;30.00;97466.84;4925472;29;686;-79
2021/08/26 10:57:53;;;;;;;;;;;;;;;22.83;29.52;97460.31;4925632;29;727;-79
2021/08/26 11:00:37;;;;;;;;;;;;;;;23.02;29.34;97458.38;4925982;29;711;-79
2021/08/26 11:03:24;;;;;;;;;;;;;;;22.88;29.50;97451.22;4925558;29;723;-80
2021/08/26 11:05:50;;;;;;;;;;;;;;;22.76;29.83;97452.09;4925146;29;905;-79
2021/08/26 11:08:36;;;;;;;;;;;;;;;22.88;29.41;97442.72;4908467;29;1883;-80
2021/08/26 11:11:20;;;;;;;;;;;;;;;22.91;29.40;97460.06;4926627;29;676;-80
2021/08/26 11:13:45;;;;;;;;;;;;;;;22.92;29.69;97453.13;4925264;29;958;-79
2021/08/26 11:16:23;;;;;;;;;;;;;;;22.91;29.47;97451.56;4926162;29;654;-79
2021/08/26 11:18:49;;;;;;;;;;;;;;;22.81;29.70;97442.97;4925311;29;707;-80
2021/08/26 11:21:15;;;;;;;;;;;;;;;22.77;29.75;97435.88;4924799;29;1057;-79
2021/08/26 11:23:42;;;;;;;;;;;;;;;22.88;29.34;97448.38;4924266;29;936;-79
2021/08/26 11:26:26;;;;;;;;;;;;;;;22.67;30.12;97448.44;4924924;29;946;-79
2021/08/26 11:28:52;;;;;;;;;;;;;;;22.75;30.05;97438.38;4908050;29;1903;-79
2021/08/26 11:31:18;;;;;;;;;;;;;;;22.73;29.93;97453.00;4925557;29;620;-79
2021/08/26 11:33:43;;;;;;;;;;;;;;;22.80;29.69;97447.06;4924176;29;664;-79
2021/08/26 11:36:15;;;;;;;;;;;;;;;23.07;29.26;97456.97;4925755;29;871;-80
2021/08/26 11:38:45;;;;;;;;;;;;;;;22.88;29.47;97454.06;4924175;29;989;-80
2021/08/26 11:41:10;;;;;;;;;;;;;;;22.81;29.72;97448.66;4924900;29;938;-79
2021/08/26 11:43:40;;;;;;;;;;;;;;;22.84;29.54;97453.38;4925055;29;668;-79
2021/08/26 11:46:09;;;;;;;;;;;;;;;23.10;29.12;97453.19;4909369;29;843;-80
2021/08/26 11:48:35;;;;;;;;;;;;;;;23.18;29.29;97448.78;4923800;29;1983;-79
2021/08/26 11:51:02;;;;;;;;;;;;;;;22.95;29.44;97438.81;4925362;29;955;-79
2021/08/26 11:53:27;;;;;;;;;;;;;;;22.95;29.75;97438.00;4924424;29;965;-79
2021/08/26 11:55:53;;;;;;;;;;;;;;;23.02;29.60;97424.31;4925970;29;900;-79
2021/08/26 11:58:18;;;;;;;;;;;;;;;22.81;29.63;97436.50;4924161;29;1380;-79
2021/08/26 12:00:44;;;;;;;;;;;;;;;22.75;29.83;97438.38;4925424;29;693;-79
2021/08/26 12:03:10;;;;;;;;;;;;;;;22.81;29.75;97431.63;4923828;29;924;-79
2021/08/26 12:05:39;;;;;;;;;;;;;;;22.76;29.71;97440.75;4908745;29;890;-79
2021/08/26 12:08:06;;;;;;;;;;;;;;;22.80;30.03;97435.72;4924373;29;1903;-80
2021/08/26 12:10:32;;;;;;;;;;;;;;;22.76;29.81;97432.25;4924809;29;935;-79
2021/08/26 12:12:58;;;;;;;;;;;;;;;22.77;29.88;97425.31;4924464;29;751;-79
2021/08/26 12:15:24;;;;;;;;;;;;;;;22.85;29.65;97423.78;4925166;29;994;-79
2021/08/26 12:17:51;;;;;;;;;;;;;;;22.97;29.41;97415.63;4924093;29;834;-79
2021/08/26 12:20:16;;;;;;;;;;;;;;;22.95;29.63;97416.13;4924433;29;893;-79
2021/08/26 12:22:43;;;;;;;;;;;;;;;22.92;29.50;97413.41;4927994;29;903;-79
2021/08/26 12:25:09;;;;;;;;;;;;;;;22.99;29.53;97401.75;4927564;29;953;-80
2021/08/26 12:27:34;;;;;;;;;;;;;;;22.95;29.34;97403.94;4912478;29;724;-79
2021/08/26 12:30:00;;;;;;;;;;;;;;;22.86;29.64;97402.66;4927695;29;705;-80
2021/08/26 12:32:35;;;;;;;;;;;;;;;22.84;29.69;97390.19;4928656;29;659;-80
2021/08/26 12:35:12;;;;;;;;;;;;;;;22.88;29.44;97400.16;4927396;29;879;-80
2021/08/26 12:37:57;;;;;;;;;;;;;;;22.86;29.48;97402.66;4928052;29;881;-79
2021/08/26 12:40:23;;;;;;;;;;;;;;;22.95;29.42;97401.94;4927570;29;788;-80
2021/08/26 12:42:56;;;;;;;;;;;;;;;22.81;29.74;97408.94;4927219;29;859;-79
2021/08/26 12:45:22;;;;;;;;;;;;;;;22.81;29.54;97402.47;4927620;29;743;-79
2021/08/26 12:47:47;;;;;;;;;;;;;;;22.74;29.65;97412.06;4912063;29;1903;-81
2021/08/26 12:50:13;;;;;;;;;;;;;;;22.77;29.94;97402.63;4911250;29;1067;-79
2021/08/26 12:52:38;;;;;;;;;;;;;;;22.78;29.58;97409.06;4927011;29;886;-78
2021/08/26 12:55:10;;;;;;;;;;;;;;;22.77;29.82;97396.94;4926592;29;1006;-79
2021/08/26 12:57:35;;;;;;;;;;;;;;;22.84;29.39;97388.13;4927643;29;700;-79
2021/08/26 13:00:01;;;;;;;;;;;;;;;22.87;29.44;97392.88;4927396;29;699;-79
2021/08/26 13:02:27;;;;;;;;;;;;;;;22.85;29.54;97392.56;4927344;29;751;-79
2021/08/26 13:05:03;;;;;;;;;;;;;;;22.89;29.43;97400.94;4926259;29;967;-79